Time;durP1;ratioP1;P1;durP2;ratioP2;P2;SDS_P1;SDS_P2;PMS_P1;PMS_P2;Temp;Humidity;BMP_temperature;BMP_pressure;BME280_temperature;BME280_humidity;BME280_pressure;Samples;Min_cycle;Max_cycle;Signal;HPM_P1;HPM_P2
2021/01/05 00:00:01;;;;;;;22.90;21.80;;;;;;;8.10;100.00;93194.97;5034116;28;20485;-70
2021/01/05 00:02:28;;;;;;;22.87;21.77;;;;;;;8.05;100.00;93205.00;5033939;28;20449;-70
2021/01/05 00:04:54;;;;;;;22.70;21.50;;;;;;;8.06;100.00;93201.47;5033952;28;20866;-70
2021/01/05 00:07:21;;;;;;;22.57;21.47;;;;;;;8.09;100.00;93210.53;5033840;28;20453;-70
2021/01/05 00:09:47;;;;;;;22.63;21.53;;;;;;;8.09;100.00;93206.19;5034579;28;20427;-70
2021/01/05 00:12:15;;;;;;;23.20;21.90;;;;;;;8.05;100.00;93199.06;5033625;28;20448;-70
2021/01/05 00:14:42;;;;;;;22.57;21.40;;;;;;;8.08;100.00;93212.31;5033481;28;20533;-70
2021/01/05 00:17:10;;;;;;;22.50;21.40;;;;;;;8.09;100.00;93213.91;5033737;28;20439;-70
2021/01/05 00:19:37;;;;;;;23.27;22.00;;;;;;;8.14;100.00;93210.78;5033477;28;20548;-71
2021/01/05 00:22:05;;;;;;;23.93;22.23;;;;;;;8.14;100.00;93213.34;5033903;28;20454;-71
2021/01/05 00:24:31;;;;;;;22.30;21.20;;;;;;;8.18;100.00;93209.41;5033713;28;20450;-70
2021/01/05 00:26:57;;;;;;;23.50;22.20;;;;;;;8.08;100.00;93214.88;5033570;28;20446;-72
2021/01/05 00:29:24;;;;;;;24.03;22.63;;;;;;;8.16;100.00;93216.50;5033289;28;20441;-72
2021/01/05 00:31:50;;;;;;;22.80;21.40;;;;;;;8.20;100.00;93214.38;5033614;28;20823;-72
2021/01/05 00:34:17;;;;;;;23.20;21.90;;;;;;;8.15;100.00;93216.69;5033848;28;20435;-71
2021/01/05 00:36:44;;;;;;;23.00;21.80;;;;;;;8.10;100.00;93222.38;5032843;28;20457;-72
2021/01/05 00:39:10;;;;;;;22.50;21.30;;;;;;;8.16;100.00;93220.84;5032935;28;20458;-72
2021/01/05 00:41:37;;;;;;;22.20;21.07;;;;;;;8.13;100.00;93222.78;5033713;28;20812;-72
2021/01/05 00:44:04;;;;;;;22.63;21.43;;;;;;;8.14;100.00;93223.59;5034245;28;20442;-72
2021/01/05 00:46:30;;;;;;;22.10;21.00;;;;;;;8.08;100.00;93222.56;5031622;28;20470;-72
2021/01/05 00:48:57;;;;;;;21.73;20.53;;;;;;;8.09;100.00;93229.28;5032919;28;20439;-72
2021/01/05 00:51:24;;;;;;;22.17;21.07;;;;;;;8.11;100.00;93240.13;5032774;28;20431;-72
2021/01/05 00:53:50;;;;;;;21.90;20.80;;;;;;;8.08;100.00;93244.84;5033164;28;20443;-72
2021/01/05 00:56:17;;;;;;;21.97;20.87;;;;;;;8.06;100.00;93252.75;5032661;28;20443;-72
2021/01/05 00:58:44;;;;;;;21.47;20.47;;;;;;;8.07;100.00;93259.44;5032663;28;20469;-72
2021/01/05 01:01:10;;;;;;;21.57;20.43;;;;;;;8.10;100.00;93273.66;5032767;28;20456;-73
2021/01/05 01:03:37;;;;;;;21.70;20.50;;;;;;;8.13;100.00;93263.06;5032886;28;20859;-73
2021/01/05 01:06:03;;;;;;;21.10;20.10;;;;;;;8.11;100.00;93277.81;5032914;28;20426;-73
2021/01/05 01:08:31;;;;;;;21.03;19.93;;;;;;;8.09;100.00;93278.00;5032442;28;20438;-72
2021/01/05 01:10:57;;;;;;;21.50;20.40;;;;;;;8.13;100.00;93289.47;5032408;28;20457;-73
2021/01/05 01:13:23;;;;;;;21.37;20.03;;;;;;;7.70;100.00;93225.41;5032778;28;20868;-73
2021/01/05 01:15:50;;;;;;;21.20;20.10;;;;;;;8.11;100.00;93291.44;5032218;28;20442;-73
2021/01/05 01:18:16;;;;;;;22.07;20.97;;;;;;;8.07;100.00;93289.41;5032374;28;20869;-73
2021/01/05 01:20:43;;;;;;;22.13;20.83;;;;;;;8.07;100.00;93297.91;5032635;28;20445;-73
2021/01/05 01:23:09;;;;;;;21.47;20.37;;;;;;;8.08;100.00;93296.13;5033113;28;20441;-72
2021/01/05 01:25:37;;;;;;;21.80;20.70;;;;;;;8.01;100.00;93293.53;5032776;28;20455;-72
2021/01/05 01:28:03;;;;;;;21.77;20.67;;;;;;;8.05;100.00;93304.19;5032937;28;20850;-73
2021/01/05 01:30:30;;;;;;;21.17;20.17;;;;;;;7.99;100.00;93310.84;5032157;28;20496;-73
2021/01/05 01:32:56;;;;;;;21.47;20.37;;;;;;;8.10;100.00;93315.50;5032108;28;20433;-72
2021/01/05 01:35:23;;;;;;;21.90;20.80;;;;;;;8.10;100.00;93314.69;5032377;28;20423;-72
2021/01/05 01:37:49;;;;;;;22.03;20.90;;;;;;;8.11;100.00;93326.53;5031876;28;20439;-73
2021/01/05 01:40:38;;;;;;;20.70;19.60;;;;;;;8.11;100.00;93337.59;5032462;28;20441;-72
2021/01/05 01:43:06;;;;;;;21.70;20.60;;;;;;;8.14;100.00;93331.31;5031843;28;20439;-73
2021/01/05 01:45:39;;;;;;;21.53;20.43;;;;;;;8.14;100.00;93336.44;5030774;28;20482;-72
2021/01/05 01:48:09;;;;;;;21.60;20.60;;;;;;;8.20;100.00;93332.34;5031880;28;20438;-72
2021/01/05 01:50:37;;;;;;;21.30;20.20;;;;;;;8.19;100.00;93335.88;5032470;28;20496;-73
2021/01/05 01:53:35;;;;;;;21.87;20.77;;;;;;;8.19;100.00;93335.88;5032337;28;20435;-72
2021/01/05 01:56:16;;;;;;;21.50;20.37;;;;;;;8.19;100.00;93341.00;5031948;28;20476;-73
2021/01/05 01:59:15;;;;;;;21.40;20.30;;;;;;;8.19;100.00;93346.13;5012070;28;20463;-73
2021/01/05 02:01:57;;;;;;;21.63;20.53;;;;;;;8.16;100.00;93341.38;5025971;28;20442;-73
2021/01/05 02:04:44;;;;;;;21.00;20.00;;;;;;;8.17;100.00;93348.91;5031770;28;20449;-73
2021/01/05 02:07:36;;;;;;;21.47;20.37;;;;;;;8.16;100.00;93355.00;5031662;28;20944;-73
2021/01/05 02:10:29;;;;;;;21.60;20.50;;;;;;;8.18;100.00;93354.78;5032124;28;20866;-73
2021/01/05 02:13:16;;;;;;;21.70;20.60;;;;;;;8.15;100.00;93355.97;5031868;28;20446;-73
2021/01/05 02:15:48;;;;;;;21.77;20.67;;;;;;;8.02;100.00;93348.94;5031703;28;20500;-72
2021/01/05 02:18:36;;;;;;;21.00;19.90;;;;;;;8.12;100.00;93359.69;5031572;28;20524;-73
2021/01/05 02:21:05;;;;;;;21.30;20.20;;;;;;;8.15;100.00;93368.00;5031440;28;20963;-73
2021/01/05 02:23:49;;;;;;;21.57;20.47;;;;;;;8.15;100.00;93373.13;5031837;28;22258;-73
2021/01/05 02:26:21;;;;;;;21.00;20.00;;;;;;;8.16;100.00;93369.56;5031358;28;20949;-73
2021/01/05 02:28:53;;;;;;;20.60;19.60;;;;;;;8.14;100.00;93372.34;5031875;28;20438;-73
2021/01/05 02:31:39;;;;;;;20.60;19.60;;;;;;;8.16;100.00;93387.53;5032416;28;20439;-73
2021/01/05 02:34:10;;;;;;;21.07;19.97;;;;;;;8.15;100.00;93381.63;5031651;28;20606;-74
2021/01/05 02:37:07;;;;;;;21.07;20.00;;;;;;;8.07;100.00;93374.03;5031684;28;20461;-73
2021/01/05 02:40:15;;;;;;;20.73;19.73;;;;;;;8.13;100.00;93384.34;5030556;28;20482;-73
2021/01/05 02:43:16;;;;;;;21.37;19.90;;;;;;;8.12;100.00;93387.09;5034400;28;20852;-74
2021/01/05 02:45:56;;;;;;;21.10;19.90;;;;;;;7.96;100.00;93370.97;5014624;28;20482;-73
2021/01/05 02:48:54;;;;;;;20.97;19.97;;;;;;;8.05;100.00;93394.72;5015443;28;20436;-74
2021/01/05 02:51:52;;;;;;;21.40;20.30;;;;;;;8.13;100.00;93398.97;5030233;28;20435;-73
2021/01/05 02:54:41;;;;;;;21.40;20.17;;;;;;;8.16;100.00;93405.47;5035176;28;20439;-73
2021/01/05 02:57:17;;;;;;;21.77;20.67;;;;;;;8.18;100.00;93395.81;5016172;28;20436;-74
2021/01/05 03:00:27;;;;;;;21.50;20.40;;;;;;;8.15;100.00;93404.72;5015256;28;20477;-73
2021/01/05 03:03:18;;;;;;;21.57;20.47;;;;;;;7.99;100.00;93391.13;5035128;28;20488;-73
2021/01/05 03:05:47;;;;;;;21.03;19.93;;;;;;;8.18;100.00;93421.47;5021728;28;20446;-73
2021/01/05 03:08:16;;;;;;;21.37;20.27;;;;;;;8.10;100.00;93418.06;5034877;28;20439;-73
2021/01/05 03:10:52;;;;;;;22.30;21.10;;;;;;;8.14;100.00;93426.19;5035006;28;20450;-74
2021/01/05 03:13:35;;;;;;;22.17;20.93;;;;;;;8.17;100.00;93430.16;5034787;28;20438;-73
2021/01/05 03:16:08;;;;;;;22.00;20.80;;;;;;;8.16;100.00;93431.13;5034908;28;20439;-73
2021/01/05 03:18:46;;;;;;;21.80;20.60;;;;;;;8.15;100.00;93443.16;5034934;28;20477;-74
2021/01/05 03:21:20;;;;;;;21.20;20.10;;;;;;;8.15;100.00;93445.75;5034587;28;20457;-73
2021/01/05 03:23:48;;;;;;;21.93;20.73;;;;;;;8.16;100.00;93446.50;5035012;28;20896;-73
2021/01/05 03:26:19;;;;;;;22.40;21.20;;;;;;;8.20;100.00;93445.19;5034768;28;20457;-73
2021/01/05 03:28:45;;;;;;;21.83;20.70;;;;;;;8.16;100.00;93451.63;5034244;28;20484;-73
2021/01/05 03:31:18;;;;;;;22.13;20.80;;;;;;;8.11;100.00;93452.19;5034674;28;20438;-73
2021/01/05 03:33:47;;;;;;;22.43;21.23;;;;;;;8.07;100.00;93453.53;5034739;28;20435;-72
2021/01/05 03:36:14;;;;;;;21.63;20.37;;;;;;;8.15;100.00;93479.06;5034585;28;20457;-72
2021/01/05 03:38:40;;;;;;;21.50;20.40;;;;;;;8.12;100.00;93489.69;5034267;28;20473;-73
2021/01/05 03:41:07;;;;;;;22.67;21.40;;;;;;;8.00;100.00;93499.59;5034475;28;20446;-74
2021/01/05 03:43:34;;;;;;;21.70;20.50;;;;;;;8.01;100.00;93508.88;5034339;28;20435;-72
2021/01/05 03:46:00;;;;;;;21.30;20.20;;;;;;;8.02;100.00;93524.09;5032970;28;20474;-80
2021/01/05 03:48:28;;;;;;;68.50;47.73;;;;;;;8.09;100.00;93538.75;5034668;28;20530;-83
2021/01/05 03:50:54;;;;;;;27.87;25.43;;;;;;;8.07;100.00;93536.38;5034418;28;20450;-69
2021/01/05 03:53:20;;;;;;;21.30;20.00;;;;;;;8.12;100.00;93553.78;5032769;28;20830;-70
2021/01/05 03:55:47;;;;;;;20.90;19.80;;;;;;;8.13;100.00;93553.59;5034059;28;20435;-71
2021/01/05 03:58:13;;;;;;;21.70;20.50;;;;;;;8.06;100.00;93567.34;5033692;28;20798;-70
2021/01/05 04:00:40;;;;;;;20.87;19.77;;;;;;;8.08;100.00;93573.88;5034112;28;20451;-69
2021/01/05 04:03:06;;;;;;;20.90;19.70;;;;;;;8.05;100.00;93586.25;5033920;28;20442;-69
2021/01/05 04:05:33;;;;;;;21.37;20.17;;;;;;;8.00;100.00;93597.03;5033732;28;20445;-70
2021/01/05 04:08:00;;;;;;;20.60;19.60;;;;;;;8.05;100.00;93599.06;5033659;28;20439;-69
2021/01/05 04:10:26;;;;;;;20.30;19.20;;;;;;;8.10;100.00;93602.72;5033781;28;20801;-71
2021/01/05 04:12:52;;;;;;;20.90;19.80;;;;;;;8.06;100.00;93606.59;5033826;28;20447;-69
2021/01/05 04:15:22;;;;;;;20.80;19.70;;;;;;;8.04;100.00;93607.75;5034126;28;20469;-70
2021/01/05 04:17:49;;;;;;;21.10;19.90;;;;;;;8.09;100.00;93616.50;5034109;28;20792;-70
2021/01/05 04:20:16;;;;;;;21.30;19.90;;;;;;;7.94;100.00;93595.97;5033531;28;20467;-70
2021/01/05 04:22:43;;;;;;;20.70;19.60;;;;;;;8.06;100.00;93621.19;5033767;28;20433;-70
2021/01/05 04:25:10;;;;;;;21.33;20.10;;;;;;;8.07;100.00;93618.44;5033779;28;20951;-71
2021/01/05 04:27:37;;;;;;;21.50;20.23;;;;;;;8.10;100.00;93627.56;5034012;28;20457;-70
2021/01/05 04:30:06;;;;;;;23.13;21.63;;;;;;;8.10;100.00;93646.31;5033387;28;20434;-70
2021/01/05 04:32:33;;;;;;;21.80;20.40;;;;;;;8.08;100.00;93645.69;5033383;28;20447;-70
2021/01/05 04:34:59;;;;;;;21.63;20.37;;;;;;;8.11;100.00;93654.78;5033175;28;20930;-70
2021/01/05 04:37:26;;;;;;;21.47;20.17;;;;;;;8.02;100.00;93666.88;5033559;28;20442;-70
2021/01/05 04:39:53;;;;;;;335.80;148.37;;;;;;;7.98;100.00;93676.69;5032913;28;21005;-76
2021/01/05 04:42:24;;;;;;;34.43;30.57;;;;;;;8.06;100.00;93690.41;5033164;28;20431;-70
2021/01/05 04:44:56;;;;;;;20.97;19.67;;;;;;;7.99;100.00;93692.88;5032694;28;20488;-70
2021/01/05 04:47:34;;;;;;;20.20;19.13;;;;;;;7.98;100.00;93701.53;4993278;28;20946;-72
2021/01/05 04:50:09;;;;;;;20.07;18.87;;;;;;;7.98;100.00;93707.47;4992979;28;21021;-70
2021/01/05 04:52:54;;;;;;;19.70;18.70;;;;;;;7.99;100.00;93723.66;4993503;28;20446;-69
2021/01/05 04:55:52;;;;;;;21.23;19.97;;;;;;;8.05;100.00;93725.50;4993243;28;20856;-71
2021/01/05 04:58:25;;;;;;;189.83;90.73;;;;;;;7.99;100.00;93733.91;4993010;28;20468;-73
2021/01/05 05:00:53;;;;;;;33.90;30.33;;;;;;;8.04;100.00;93733.38;4992326;28;20443;-69
2021/01/05 05:03:31;;;;;;;21.40;20.10;;;;;;;8.00;100.00;93738.84;4992216;28;20804;-72
2021/01/05 05:06:09;;;;;;;76.03;43.00;;;;;;;8.01;100.00;93739.66;4991523;28;20440;-73
2021/01/05 05:09:14;;;;;;;22.93;21.23;;;;;;;8.01;100.00;93758.41;4992043;28;20463;-70
2021/01/05 05:11:58;;;;;;;19.43;18.40;;;;;;;7.95;100.00;93777.06;4973915;28;20487;-69
2021/01/05 05:14:41;;;;;;;19.77;18.77;;;;;;;7.92;100.00;93789.41;4987313;28;20451;-69
2021/01/05 05:17:27;;;;;;;20.17;18.97;;;;;;;7.93;100.00;93791.00;4992854;28;20452;-69
2021/01/05 05:20:09;;;;;;;19.90;18.80;;;;;;;7.94;100.00;93788.25;4992947;28;20475;-73
2021/01/05 05:22:49;;;;;;;19.60;18.60;;;;;;;7.97;100.00;93802.50;4973414;28;20443;-70
2021/01/05 05:25:19;;;;;;;19.97;18.87;;;;;;;7.90;100.00;93800.63;4988785;28;20815;-69
2021/01/05 05:27:51;;;;;;;19.30;18.30;;;;;;;7.93;100.00;93806.38;4993681;28;20459;-70
2021/01/05 05:30:24;;;;;;;19.80;18.70;;;;;;;7.93;100.00;93832.03;4992619;28;21013;-68
2021/01/05 05:32:55;;;;;;;19.37;18.37;;;;;;;7.89;100.00;93827.22;4992441;28;20429;-69
2021/01/05 05:35:40;;;;;;;20.00;18.80;;;;;;;7.91;100.00;93829.63;4991866;28;20860;-70
2021/01/05 05:38:08;;;;;;;20.57;19.30;;;;;;;7.89;100.00;93829.78;4992937;28;20428;-69
2021/01/05 05:40:43;;;;;;;20.30;19.10;;;;;;;7.92;100.00;93835.53;4992726;28;20943;-72
2021/01/05 05:43:52;;;;;;;110.00;62.20;;;;;;;7.85;100.00;93836.22;4992465;28;20428;-70
2021/01/05 05:46:26;;;;;;;22.07;20.50;;;;;;;7.79;100.00;93836.91;5001403;28;20473;-71
2021/01/05 05:48:59;;;;;;;19.83;18.73;;;;;;;7.71;100.00;93837.75;5032105;28;20934;-69
2021/01/05 05:51:32;;;;;;;21.30;19.90;;;;;;;7.78;100.00;93851.50;5031517;28;20829;-69
2021/01/05 05:54:05;;;;;;;19.87;18.67;;;;;;;7.77;100.00;93852.44;5030717;28;20438;-69
2021/01/05 05:56:56;;;;;;;20.07;18.87;;;;;;;7.77;100.00;93856.78;5030196;28;20946;-70
2021/01/05 05:59:34;;;;;;;19.90;18.80;;;;;;;7.77;100.00;93872.16;5030288;28;20509;-70
2021/01/05 06:02:00;;;;;;;19.23;18.20;;;;;;;7.72;100.00;93872.66;5029975;28;20443;-70
2021/01/05 06:04:27;;;;;;;20.53;19.30;;;;;;;7.77;100.00;93895.25;5030086;28;20443;-70
2021/01/05 06:06:54;;;;;;;19.60;18.50;;;;;;;7.77;100.00;93902.94;5029443;28;20552;-70
2021/01/05 06:09:21;;;;;;;20.73;19.33;;;;;;;7.76;100.00;93896.19;5030829;28;20454;-69
2021/01/05 06:11:54;;;;;;;19.57;18.40;;;;;;;7.81;100.00;93896.50;5031711;28;20998;-69
2021/01/05 06:14:21;;;;;;;18.60;17.60;;;;;;;7.77;100.00;93916.53;5033104;28;20431;-69
2021/01/05 06:16:49;;;;;;;18.90;17.90;;;;;;;7.74;100.00;93922.00;5032860;28;20447;-69
2021/01/05 06:19:16;;;;;;;19.90;18.80;;;;;;;7.74;100.00;93926.31;5036062;28;20498;-70
2021/01/05 06:21:42;;;;;;;19.90;18.70;;;;;;;7.74;100.00;93928.88;5036075;28;20442;-69
2021/01/05 06:24:09;;;;;;;22.10;20.63;;;;;;;7.62;100.00;93910.50;5036264;28;20440;-69
2021/01/05 06:26:36;;;;;;;19.10;18.10;;;;;;;7.72;100.00;93939.31;5035802;28;20438;-70
2021/01/05 06:29:02;;;;;;;19.57;18.43;;;;;;;7.77;100.00;93936.25;5036094;28;20427;-69
2021/01/05 06:31:29;;;;;;;21.30;20.07;;;;;;;7.78;100.00;93936.06;5035296;28;20435;-69
2021/01/05 06:33:57;;;;;;;21.37;20.00;;;;;;;7.77;100.00;93942.16;5035658;28;20459;-69
2021/01/05 06:36:24;;;;;;;20.50;19.17;;;;;;;7.76;100.00;93939.78;5036539;28;20451;-69
2021/01/05 06:38:51;;;;;;;20.00;18.83;;;;;;;7.78;100.00;93951.47;5035833;28;20874;-69
2021/01/05 06:41:18;;;;;;;21.53;19.90;;;;;;;7.81;100.00;93947.78;5034976;28;21016;-69
2021/01/05 06:43:44;;;;;;;18.90;17.90;;;;;;;7.73;100.00;93955.50;5035986;28;20446;-69
2021/01/05 06:46:11;;;;;;;19.40;18.30;;;;;;;7.74;100.00;93954.50;5033895;28;20487;-69
2021/01/05 06:48:37;;;;;;;19.70;18.60;;;;;;;7.83;100.00;93963.78;5035268;28;20487;-69
2021/01/05 06:51:05;;;;;;;20.20;18.80;;;;;;;7.82;100.00;93974.97;5034963;28;20985;-69
2021/01/05 06:53:32;;;;;;;19.43;18.33;;;;;;;7.83;100.00;93986.84;5035455;28;20444;-69
2021/01/05 06:55:59;;;;;;;19.40;18.20;;;;;;;7.87;100.00;93980.44;5035050;28;20442;-69
2021/01/05 06:58:25;;;;;;;20.07;18.73;;;;;;;7.82;100.00;93990.38;5034657;28;20446;-69
2021/01/05 07:00:51;;;;;;;20.13;19.03;;;;;;;7.82;100.00;93992.94;5034644;28;20516;-70
2021/01/05 07:03:18;;;;;;;20.20;19.00;;;;;;;7.93;100.00;94003.81;5035657;28;20446;-70
2021/01/05 07:05:45;;;;;;;21.20;19.80;;;;;;;7.98;100.00;93988.72;5034416;28;20438;-69
2021/01/05 07:08:12;;;;;;;20.37;19.23;;;;;;;8.11;100.00;93988.16;5036156;28;20824;-69
2021/01/05 07:10:40;;;;;;;20.70;19.60;;;;;;;8.23;100.00;93991.16;5035417;28;20457;-69
2021/01/05 07:13:06;;;;;;;20.00;18.90;;;;;;;8.34;100.00;94008.75;5035517;28;20434;-69
2021/01/05 07:15:32;;;;;;;20.60;19.40;;;;;;;8.40;100.00;94009.06;5034854;28;20834;-69
2021/01/05 07:17:59;;;;;;;21.57;20.07;;;;;;;8.50;100.00;94022.47;5034932;28;20446;-70
2021/01/05 07:20:25;;;;;;;19.90;18.80;;;;;;;8.57;100.00;94015.72;5034960;28;20993;-69
2021/01/05 07:22:52;;;;;;;20.70;19.60;;;;;;;8.64;100.00;94017.63;5034466;28;20431;-70
2021/01/05 07:25:20;;;;;;;21.30;19.77;;;;;;;8.68;100.00;94032.50;5037828;28;20454;-71
2021/01/05 07:27:46;;;;;;;20.23;19.23;;;;;;;8.80;100.00;94038.03;5033922;28;20437;-70
2021/01/05 07:30:13;;;;;;;21.17;20.00;;;;;;;8.87;100.00;94051.00;5034178;28;20449;-70
2021/01/05 07:32:40;;;;;;;19.53;18.63;;;;;;;8.90;100.00;94067.84;5033922;28;20453;-70
2021/01/05 07:35:14;;;;;;;20.67;19.43;;;;;;;8.96;100.00;94068.94;5025671;28;20454;-71
2021/01/05 07:37:43;;;;;;;19.90;18.90;;;;;;;9.10;100.00;94069.94;5015508;28;20435;-70
2021/01/05 07:40:20;;;;;;;20.50;19.40;;;;;;;9.21;100.00;94082.41;5030854;28;21034;-71
2021/01/05 07:42:48;;;;;;;20.90;19.70;;;;;;;9.21;100.00;94099.56;5034057;28;20436;-71
2021/01/05 07:45:19;;;;;;;21.30;20.10;;;;;;;9.28;100.00;94105.63;5033353;28;20452;-71
2021/01/05 07:47:46;;;;;;;21.67;20.37;;;;;;;9.35;100.00;94108.31;4994857;28;20420;-70
2021/01/05 07:50:19;;;;;;;20.50;19.47;;;;;;;9.44;100.00;94116.75;4994628;28;20464;-71
2021/01/05 07:52:45;;;;;;;21.60;20.30;;;;;;;9.53;100.00;94127.78;4994506;28;20447;-70
2021/01/05 07:55:16;;;;;;;20.60;19.50;;;;;;;9.58;100.00;94139.16;4994600;28;20459;-69
2021/01/05 07:57:47;;;;;;;21.60;20.40;;;;;;;9.60;100.00;94142.34;4995015;28;20515;-71
2021/01/05 08:00:18;;;;;;;20.90;19.70;;;;;;;9.61;100.00;94141.38;4994172;28;21029;-70
2021/01/05 08:02:44;;;;;;;20.80;19.70;;;;;;;9.67;100.00;94139.91;4994268;28;20448;-71
2021/01/05 08:05:12;;;;;;;21.23;20.13;;;;;;;9.91;100.00;94145.78;4994248;28;20838;-70
2021/01/05 08:07:40;;;;;;;21.23;20.00;;;;;;;9.99;100.00;94162.16;4994224;28;20440;-70
2021/01/05 08:10:08;;;;;;;20.20;19.20;;;;;;;9.98;100.00;94168.25;4995164;28;20457;-70
2021/01/05 08:12:34;;;;;;;21.27;20.13;;;;;;;10.09;100.00;94178.13;4994807;28;20924;-70
2021/01/05 08:15:01;;;;;;;21.50;20.27;;;;;;;10.14;100.00;94170.69;4994010;28;20447;-70
2021/01/05 08:17:28;;;;;;;21.10;20.00;;;;;;;10.22;100.00;94187.81;4994533;28;20448;-70
2021/01/05 08:19:54;;;;;;;21.10;19.90;;;;;;;10.28;100.00;94176.03;4994118;28;20468;-70
2021/01/05 08:22:21;;;;;;;21.27;20.07;;;;;;;10.48;100.00;94196.91;4993784;28;20441;-71
2021/01/05 08:24:54;;;;;;;20.30;19.13;;;;;;;10.51;100.00;94195.75;4993843;28;20455;-70
2021/01/05 08:27:21;;;;;;;20.23;19.13;;;;;;;10.55;100.00;94202.19;4993455;28;20447;-70
2021/01/05 08:29:47;;;;;;;20.90;19.50;;;;;;;10.72;100.00;94207.13;4993892;28;20498;-70
2021/01/05 08:32:13;;;;;;;21.60;20.37;;;;;;;10.72;100.00;94220.81;4993355;28;20437;-70
2021/01/05 08:34:41;;;;;;;22.00;20.50;;;;;;;10.85;100.00;94214.22;4993606;28;20460;-71
2021/01/05 08:37:07;;;;;;;20.53;19.20;;;;;;;10.85;100.00;94219.38;4993486;28;20458;-70
2021/01/05 08:39:34;;;;;;;21.97;20.63;;;;;;;10.87;100.00;94228.53;4993305;28;20472;-70
2021/01/05 08:42:00;;;;;;;22.27;20.57;;;;;;;10.91;100.00;94226.38;4993975;28;20432;-70
2021/01/05 08:44:27;;;;;;;21.90;20.60;;;;;;;11.02;100.00;94225.13;4993178;28;20444;-71
2021/01/05 08:46:59;;;;;;;20.70;19.60;;;;;;;11.04;100.00;94227.56;5017618;28;20485;-70
2021/01/05 08:49:26;;;;;;;20.90;19.80;;;;;;;11.06;100.00;94228.97;5032741;28;20419;-71
2021/01/05 08:51:53;;;;;;;20.93;19.70;;;;;;;11.09;100.00;94226.03;5032568;28;20945;-70
2021/01/05 08:54:20;;;;;;;20.10;19.10;;;;;;;11.17;100.00;94237.22;5032460;28;20419;-71
2021/01/05 08:56:52;;;;;;;22.30;21.00;;;;;;;11.11;100.00;94252.41;5032976;28;20435;-70
2021/01/05 08:59:18;;;;;;;20.37;19.27;;;;;;;11.11;100.00;94249.06;5033006;28;20474;-71
2021/01/05 09:01:45;;;;;;;20.50;19.40;;;;;;;11.17;100.00;94258.63;5032334;28;20431;-71
2021/01/05 09:04:11;;;;;;;20.63;19.60;;;;;;;11.06;100.00;94249.59;5033329;28;20456;-71
2021/01/05 09:06:38;;;;;;;20.20;19.17;;;;;;;11.11;100.00;94260.13;5032828;28;20431;-71
2021/01/05 09:09:06;;;;;;;20.17;18.97;;;;;;;11.14;100.00;94258.19;5032762;28;20448;-71
2021/01/05 09:11:32;;;;;;;20.87;19.77;;;;;;;11.23;100.00;94254.53;5032593;28;20933;-70
2021/01/05 09:13:59;;;;;;;20.97;19.40;;;;;;;11.26;100.00;94254.19;5033169;28;20482;-70
2021/01/05 09:16:27;;;;;;;20.67;19.37;;;;;;;11.33;100.00;94262.78;5032481;28;20423;-70
2021/01/05 09:18:54;;;;;;;20.50;19.30;;;;;;;11.30;100.00;94268.31;5031724;28;20482;-70
2021/01/05 09:21:22;;;;;;;20.10;19.10;;;;;;;11.35;100.00;94265.19;5032266;28;20427;-70
2021/01/05 09:23:50;;;;;;;20.90;19.80;;;;;;;11.28;100.00;94251.41;5031992;28;20454;-70
2021/01/05 09:26:20;;;;;;;21.27;19.83;;;;;;;11.26;100.00;94243.88;5032333;28;20427;-70
2021/01/05 09:28:46;;;;;;;20.60;19.50;;;;;;;11.37;100.00;94270.16;5031951;28;20500;-70
2021/01/05 09:31:13;;;;;;;22.97;21.03;;;;;;;11.37;100.00;94260.66;5031918;28;20555;-70
2021/01/05 09:33:39;;;;;;;21.60;20.40;;;;;;;11.41;100.00;94261.06;5031642;28;20957;-70
2021/01/05 09:36:07;;;;;;;21.27;19.97;;;;;;;11.37;100.00;94265.00;5031743;28;20447;-70
2021/01/05 09:38:33;;;;;;;21.43;19.93;;;;;;;11.41;100.00;94272.19;5031648;28;20475;-70
2021/01/05 09:40:59;;;;;;;20.13;19.03;;;;;;;11.50;100.00;94266.94;5031267;28;20454;-71
2021/01/05 09:43:27;;;;;;;22.30;20.80;;;;;;;11.42;100.00;94262.69;5031661;28;20434;-70
2021/01/05 09:45:53;;;;;;;20.37;19.17;;;;;;;11.28;100.00;94254.00;5030431;28;20485;-70
2021/01/05 09:48:20;;;;;;;24.80;21.00;;;;;;;11.34;100.00;94273.88;5031863;28;20454;-71
2021/01/05 09:50:48;;;;;;;21.33;20.13;;;;;;;11.39;100.00;94266.44;5031564;28;20446;-70
2021/01/05 09:53:15;;;;;;;22.13;20.40;;;;;;;11.45;100.00;94268.28;5031144;28;20434;-70
2021/01/05 09:55:43;;;;;;;21.67;20.47;;;;;;;11.51;100.00;94260.81;5031461;28;20441;-70
2021/01/05 09:58:09;;;;;;;20.80;19.60;;;;;;;11.54;100.00;94260.41;5031421;28;20466;-69
2021/01/05 10:00:36;;;;;;;20.87;19.57;;;;;;;11.42;100.00;94262.69;5030902;28;20575;-70
2021/01/05 10:03:03;;;;;;;20.87;19.60;;;;;;;11.37;100.00;94270.16;5031316;28;20441;-70
2021/01/05 10:05:29;;;;;;;20.10;19.00;;;;;;;11.34;100.00;94269.53;5031159;28;20872;-71
2021/01/05 10:07:56;;;;;;;20.60;19.30;;;;;;;11.40;100.00;94267.22;5030888;28;20431;-70
2021/01/05 10:10:25;;;;;;;20.20;19.20;;;;;;;11.32;100.00;94268.94;5030913;28;20465;-69
2021/01/05 10:12:52;;;;;;;20.33;19.23;;;;;;;11.39;100.00;94276.75;5031083;28;20438;-71
2021/01/05 10:15:20;;;;;;;20.00;18.87;;;;;;;11.31;100.00;94276.84;5030804;28;20953;-70
2021/01/05 10:17:48;;;;;;;20.33;18.93;;;;;;;11.21;100.00;94270.19;5031184;28;20438;-70
2021/01/05 10:20:17;;;;;;;19.70;18.60;;;;;;;11.17;100.00;94275.88;5031090;28;20484;-71
2021/01/05 10:22:44;;;;;;;19.57;18.53;;;;;;;11.19;100.00;94274.72;5031150;28;20449;-70
2021/01/05 10:25:12;;;;;;;20.20;19.13;;;;;;;11.20;100.00;94278.88;5030996;28;20450;-71
2021/01/05 10:27:38;;;;;;;19.87;18.77;;;;;;;11.20;100.00;94275.53;5031007;28;20457;-71
2021/01/05 10:30:07;;;;;;;20.67;19.57;;;;;;;11.26;100.00;94274.81;5030778;28;20430;-71
2021/01/05 10:32:33;;;;;;;20.30;19.30;;;;;;;11.22;100.00;94274.34;5030903;28;20427;-70
2021/01/05 10:35:01;;;;;;;20.53;19.33;;;;;;;11.24;100.00;94278.53;5031037;28;20450;-71
2021/01/05 10:37:27;;;;;;;20.30;19.10;;;;;;;11.21;100.00;94269.38;5030866;28;20435;-70
2021/01/05 10:39:53;;;;;;;19.77;18.80;;;;;;;11.19;100.00;94271.34;5031285;28;20521;-70
2021/01/05 10:42:20;;;;;;;20.97;19.70;;;;;;;11.24;100.00;94271.59;5031085;28;20442;-70
2021/01/05 10:44:47;;;;;;;20.70;19.60;;;;;;;11.24;100.00;94271.59;5030841;28;20427;-69
2021/01/05 10:47:14;;;;;;;19.60;18.60;;;;;;;11.23;100.00;94275.16;5029662;28;20492;-69
2021/01/05 10:49:42;;;;;;;20.07;18.87;;;;;;;11.21;100.00;94270.19;5030889;28;20431;-70
2021/01/05 10:52:16;;;;;;;19.33;18.23;;;;;;;11.27;100.00;94278.97;5031949;28;20458;-70
2021/01/05 10:54:43;;;;;;;20.67;19.33;;;;;;;11.28;100.00;94280.56;5031847;28;20453;-71
2021/01/05 10:57:11;;;;;;;22.93;21.23;;;;;;;11.19;100.00;94277.31;5033220;28;20423;-70
2021/01/05 10:59:41;;;;;;;19.93;18.83;;;;;;;11.17;100.00;94288.75;5031607;28;20466;-70
2021/01/05 11:02:09;;;;;;;19.43;18.43;;;;;;;11.14;100.00;94283.94;5030462;28;20442;-71
2021/01/05 11:04:36;;;;;;;19.90;18.90;;;;;;;11.14;100.00;94277.03;5034567;28;20450;-72
2021/01/05 11:07:05;;;;;;;19.47;18.40;;;;;;;11.18;100.00;94262.00;5033880;28;20438;-71
2021/01/05 11:09:33;;;;;;;20.37;19.03;;;;;;;11.24;100.00;94287.06;5034485;28;20802;-71
2021/01/05 11:12:01;;;;;;;20.07;18.50;;;;;;;11.25;100.00;94277.53;5034199;28;20603;-70
2021/01/05 11:14:28;;;;;;;19.17;18.17;;;;;;;11.10;100.00;94255.19;5033246;28;20590;-71
2021/01/05 11:16:55;;;;;;;19.33;18.33;;;;;;;11.16;100.00;94272.50;5034364;28;20492;-72
2021/01/05 11:19:23;;;;;;;20.13;18.47;;;;;;;11.24;100.00;94276.75;5033720;28;20467;-71
2021/01/05 11:21:51;;;;;;;19.50;18.30;;;;;;;11.20;100.00;94270.38;5034544;28;20463;-72
2021/01/05 11:24:17;;;;;;;19.43;18.10;;;;;;;11.20;100.00;94281.47;5034573;28;20443;-72
2021/01/05 11:26:45;;;;;;;19.10;18.10;;;;;;;11.20;100.00;94283.25;5034273;28;20447;-72
2021/01/05 11:29:12;;;;;;;18.43;17.53;;;;;;;11.18;100.00;94277.47;5033804;28;20427;-72